• Join FlightAware (Why Join?)
  • Login
  • US Flag 
07:52AM EDT


 

Airport Tracker/Info


-or-


 

Live Flight TrackerFlight Track Log ✈ CTL309 ✈ 23-Apr-2013 ✈ KBKL - KOSU

Flight Track Log - Related Links

Times and Time Zones

All times are in EDT time to prevent confusion due to time zone crossing. See the CTL309 flight status page for this flight to view local times or setup timezone preferences in your user account.

Time Position Orientation Groundspeed Altitude Reporting Facility
EDT Latitude Longitude Course Direction KTS MPH feet Rate Location/Type
08:54PM 41.5147 -81.6981 319° Northwest 112 129 800  Level Cleveland Center
08:55PM 41.5436 -81.7317 319° Northwest 129 148 2,400 1,080 Climbing Cleveland Center
08:56PM 41.5267 -81.7647 236° Southwest 103 119 3,300 780 Climbing Cleveland Center
08:57PM 41.5075 -81.8003 234° Southwest 121 139 4,000 540 Climbing Cleveland Center
08:59PM 41.4758 -81.8358 220° Southwest 130 150 4,500 480 Climbing Cleveland Center
09:00PM 41.4483 -81.8603 214° Southwest 130 150 5,100 780 Climbing Cleveland Center
09:01PM 41.4272 -81.8792 214° Southwest 93 107 6,100 420 Climbing Cleveland Center
09:02PM 41.3936 -81.9117 216° Southwest 138 159 6,100 -60 Level Cleveland Center
09:03PM 41.3619 -81.9414 215° Southwest 137 158 6,000  Descending Cleveland Center
09:04PM 41.3261 -81.9794 219° Southwest 136 157 6,100  Climbing Cleveland Center
09:05PM 41.3028 -82.0011 215° Southwest 135 155 6,100  Level Cleveland Center
09:06PM 41.2669 -82.0361 216° Southwest 137 158 6,100  Level Cleveland Center
09:07PM 41.2394 -82.0633 217° Southwest 134 154 6,100  Level Cleveland Center
09:08PM 41.2078 -82.0928 215° Southwest 142 163 6,100  Level Cleveland Center
09:09PM 41.1742 -82.1225 214° Southwest 145 167 6,100  Level Cleveland Center
09:11PM 41.1003 -82.1842 212° Southwest 143 165 6,100 -60 Level Indianapolis Center
09:12PM 41.0683 -82.2147 216° Southwest 142 163 6,000 -60 Descending Indianapolis Center
09:13PM 41.0358 -82.2472 217° Southwest 144 166 6,000  Level Indianapolis Center
09:14PM 41.0028 -82.2753 213° Southwest 141 162 6,000  Level Indianapolis Center
09:15PM 40.9694 -82.3078 216° Southwest 145 167 6,000  Level Indianapolis Center
09:16PM 40.9367 -82.3378 215° Southwest 143 165 6,100  Climbing Indianapolis Center
09:17PM 40.9022 -82.3683 214° Southwest 147 169 6,000  Descending Indianapolis Center
09:18PM 40.8681 -82.3997 215° Southwest 148 170 6,100  Climbing Indianapolis Center
09:19PM 40.8286 -82.4356 215° Southwest 147 169 6,100  Level Indianapolis Center
09:20PM 40.7953 -82.4631 212° Southwest 143 165 6,100 -60 Level Indianapolis Center
09:21PM 40.7608 -82.4925 213° Southwest 145 167 6,000 -60 Descending Indianapolis Center
09:22PM 40.7272 -82.5225 214° Southwest 145 167 6,000  Level Indianapolis Center
09:23PM 40.6950 -82.5503 213° Southwest 139 160 6,100  Climbing Indianapolis Center
09:24PM 40.6617 -82.5803 214° Southwest 142 163 6,000 -60 Descending Indianapolis Center
09:25PM 40.6286 -82.6078 212° Southwest 140 161 6,000  Level Indianapolis Center
09:26PM 40.5969 -82.6350 213° Southwest 136 157 6,000 -60 Level Indianapolis Center
09:27PM 40.5650 -82.6656 216° Southwest 139 160 5,900  Descending Indianapolis Center
09:28PM 40.5342 -82.6956 216° Southwest 137 158 6,100  Climbing Indianapolis Center
09:29PM 40.5019 -82.7244 214° Southwest 138 159 6,000 -60 Descending Indianapolis Center
09:30PM 40.4733 -82.7533 218° Southwest 138 159 6,000 -240 Level Indianapolis Center
09:31PM 40.4403 -82.7797 211° Southwest 139 160 5,600 -420 Descending Indianapolis Center
09:33PM 40.3936 -82.8181 212° Southwest 150 173 5,100 -600 Descending Indianapolis Center
09:34PM 40.3606 -82.8472 214° Southwest 153 176 4,300 -840 Descending Indianapolis Center
09:35PM 40.3239 -82.8744 210° Southwest 157 181 3,500 -660 Descending Indianapolis Center
09:36PM 40.2831 -82.9094 213° Southwest 160 184 3,000 -360 Descending Indianapolis Center
09:37PM 40.2500 -82.9358 211° Southwest 148 170 2,900 -300 Descending Indianapolis Center
09:38PM 40.2097 -82.9722 215° Southwest 152 175 2,500 -300 Descending Indianapolis Center
09:39PM 40.1767 -82.9956 208° Southwest 151 174 2,400 -300 Descending Indianapolis Center
09:40PM 40.1408 -83.0194 207° Southwest 151 174 1,900 -480 Descending Indianapolis Center
09:41PM 40.1033 -83.0378 201° Southwest 147 169 1,500 -420 Descending Indianapolis Center
09:42PM 40.0794 -83.0528 206° Southwest 112 129 1,100 -420 Descending Indianapolis Center